Lokaal Brand Risico
CBI


Neerslagradar Meer informatie rain snow radar


Onweersbuien Meer informatie Boltek Parkstad!


24/7 Weercamera Meer informatie Webcam







Het weer levert geen direct gevaar op in Parkstad (045)    Er zijn geen waarschuwingen afgegeven voor Parkstad (045)

METAR rapporten vliegvelden

   
EHBK - Beek Nederland
Gewijzigd: 19-11-2017 18:55
Bewolking  
Bewolking  
   Wind: Westen 9.3 km/h
Wind: Westen 9.3 km/h
Temperatuur: 6°C
Voelt als: 4°C
Dauwpunt: 4°C
Vochtigheid: 87%
Barometer: 1021 hPa
Satelliet beelden: Bewolking
Zicht: meer dan 10 km
Bewolking: Bewolking 823 m
EHBK 191755Z AUTO 28005KT 220V350 9999 OVC027 06/04 Q1021 NOSIG
EHBK - Maastricht Nederland
Gewijzigd: 19-11-2017 18:55
Bewolking  
Bewolking  
   Wind: Westen 9.3 km/h
Wind: Westen 9.3 km/h
Temperatuur: 6°C
Voelt als: 4°C
Dauwpunt: 4°C
Vochtigheid: 87%
Barometer: 1021 hPa
Satelliet beelden: Bewolking
Zicht: meer dan 10 km
Bewolking: Bewolking 823 m
EHBK 191755Z AUTO 28005KT 220V350 9999 OVC027 06/04 Q1021 NOSIG
EBLG - Liège België
Gewijzigd: 19-11-2017 18:50
Licht bewolkt  
Licht bewolkt  
   Wind: Westen 11.1 km/h
Wind: Westen 11.1 km/h
Temperatuur: 4°C
Voelt als: 1°C
Dauwpunt: -1°C
Vochtigheid: 70%
Barometer: 1022 hPa
Satelliet beelden: Licht bewolkt
Zicht: meer dan 10 km
Bewolking: Licht bewolkt 762 m
EBLG 191750Z 26006KT 9999 FEW025 04/M01 Q1022 NOSIG
EDDK - Köln/Bonn Duitsland
Gewijzigd: 19-11-2017 18:50
Grotendeels bewolkt  
Grotendeels bewolkt  
   Wind: Westen 18.5 km/h
Wind: Westen 18.5 km/h
Temperatuur: 6°C
Voelt als: 3°C
Dauwpunt: 4°C
Vochtigheid: 87%
Barometer: 1020 hPa
Satelliet beelden: Grotendeels bewolkt
Zicht: meer dan 10 km
Bewolking: Licht bewolkt 457 m,
Grotendeels bewolkt 975 m
EDDK 191750Z 28010KT 9999 FEW015 BKN032 06/04 Q1020 NOSIG
EDDL - Düsseldorf Duitsland
Gewijzigd: 19-11-2017 18:50
Kleine regenbuien, Neerslag, Grotendeels bewolkt  
Kleine regenbuien, Neerslag, Grotendeels bewolkt  
   Wind: Westen 24.1 km/h
Wind: Westen 24.1 km/h
Temperatuur: 6°C
Voelt als: 2°C
Dauwpunt: 4°C
Vochtigheid: 87%
Barometer: 1019 hPa
Satelliet beelden: Grotendeels bewolkt
Zicht: meer dan 10 km
Bewolking: Licht bewolkt 488 m,
Grotendeels bewolkt 1524 m
EDDL 191750Z 28013KT 9999 -SHRA FEW016TCU BKN050 06/04 Q1019 NOSIG
EHEH - Eindhoven Nederland
Gewijzigd: 19-11-2017 18:55
Licht bewolkt  
Licht bewolkt  
   Wind: WZW 13 km/h
Wind: WZW 13 km/h
Temperatuur: 5°C
Voelt als: 2°C
Dauwpunt: 3°C
Vochtigheid: 87%
Barometer: 1021 hPa
Satelliet beelden: Licht bewolkt
Zicht: meer dan 10 km
Bewolking: Licht bewolkt 1006 m
EHEH 191755Z AUTO 24007KT 200V280 9999 FEW033 05/03 Q1021 BLU 27007KT 9999 FEW030 TEMPO FEW020CB SCT030
ELLX - Luxemburg Luxemburg
Gewijzigd: 19-11-2017 18:50
Grotendeels bewolkt  
Grotendeels bewolkt  
   Wind: Westen 14.8 km/h
Wind: Westen 14.8 km/h
Temperatuur: 4°C
Voelt als: 1°C
Dauwpunt: 1°C
Vochtigheid: 81%
Barometer: 1021 hPa
Satelliet beelden: Grotendeels bewolkt
Zicht: meer dan 10 km
Bewolking: Licht bewolkt 945 m,
Grotendeels bewolkt 1189 m
ELLX 191750Z 27008KT 9999 FEW031 BKN039 04/01 Q1021 NOSIG
EGLL - London England
Gewijzigd: 19-11-2017 18:50
Helder  
Helder  
   Wind: Westen 9.3 km/h
Wind: Westen 9.3 km/h
Temperatuur: 6°C
Voelt als: 4°C
Dauwpunt: 2°C
Vochtigheid: 76%
Barometer: 1024 hPa
Satelliet beelden: Helder
Zicht: meer dan 10 km
Bewolking: Helder
EGLL 191750Z AUTO 28005KT 9999 NCD 06/02 Q1024
EBAW - Antwerpen België
Gewijzigd: 19-11-2017 18:50
Helder  
Helder  
   Wind: Westen 13 km/h
Wind: Westen 13 km/h
Temperatuur: 6°C
Voelt als: 3°C
Dauwpunt: 3°C
Vochtigheid: 81%
Barometer: 1022 hPa
Zicht: meer dan 10 km
Bewolking: Helder
EBAW 191750Z 27007KT CAVOK 06/03 Q1022 NOSIG
EBOS - Oostende België
Gewijzigd: 19-11-2017 18:50
Licht bewolkt  
Licht bewolkt  
   Wind: WNW 14.8 km/h
Wind: WNW 14.8 km/h
Temperatuur: 7°C
Voelt als: 4°C
Dauwpunt: 1°C
Vochtigheid: 66%
Barometer: 1023 hPa
Satelliet beelden: Licht bewolkt
Zicht: meer dan 10 km
Bewolking: Licht bewolkt 914 m
EBOS 191750Z 29008KT 9999 FEW030 07/01 Q1023 NOSIG
LEAL - La Nucia Spanje
Gewijzigd: 19-11-2017 18:30
Helder  
Helder  
   Wind: ZZW 5.6 km/h
Wind: ZZW 5.6 km/h
Temperatuur: 15°C
Dauwpunt: 12°C
Vochtigheid: 82%
Barometer: 1021 hPa
Zicht: meer dan 10 km
Bewolking: Helder
LEAL 191730Z 21003KT CAVOK 15/12 Q1021 NOSIG
TNCA - Oranjestad Aruba
Gewijzigd: 19-11-2017 18:00
Licht bewolkt  
Licht bewolkt  
   Wind: ZZO 14.8 km/h
Wind: ZZO 14.8 km/h
Temperatuur: 28°C
Gevoelstemperatuur: 32°C
Dauwpunt: 24°C
Vochtigheid: 79%
Barometer: 1008 hPa
Satelliet beelden: Licht bewolkt
Zicht: meer dan 10 km
Bewolking: Licht bewolkt 549 m
TNCA 191700Z 15008KT 9999 FEW018 28/24 Q1008 NOSIG
TNCC - Willemstad Curacao
Gewijzigd: 19-11-2017 18:41
Onweer, Licht bewolkt  
Onweer, Licht bewolkt  
   Wind: varieert 5.6 km/h
Wind: varieert 5.6 km/h
Temperatuur: 29°C
Gevoelstemperatuur: 34°C
Dauwpunt: 25°C
Vochtigheid: 79%
Barometer: 1008 hPa
Satelliet beelden: Licht bewolkt
Zicht: meer dan 10 km
Bewolking: Licht bewolkt 396 m
TNCC 191741Z VRB03KT 9999 TS FEW013CB 29/25 Q1008
MTPP - Port au Prince Haitië
Gewijzigd: 19-11-2017 19:00
Grotendeels bewolkt  
Grotendeels bewolkt  
   Wind: Noorden 11.1 km/h
Wind: Noorden 11.1 km/h
Temperatuur: 31°C
Gevoelstemperatuur: 36°C
Dauwpunt: 23°C
Vochtigheid: 62%
Barometer: 1007 hPa
Satelliet beelden: Grotendeels bewolkt
Zicht: meer dan 10 km
Bewolking: Gedeeltelijk bewolkt 853 m,
Grotendeels bewolkt 2134 m
MTPP 191800Z 01006KT 9999 SCT028 BKN070 31/23 Q1007 A2976
ENVA - Trondheim Noorwegen
Gewijzigd: 19-11-2017 18:50
Gedeeltelijk bewolkt  
Gedeeltelijk bewolkt  
   Wind: OZO 11.1 km/h
Wind: OZO 11.1 km/h
Temperatuur: -6°C
Voelt als: -11°C
Dauwpunt: -8°C
Vochtigheid: 86%
Barometer: 1008 hPa
Satelliet beelden: Gedeeltelijk bewolkt
Zicht: meer dan 10 km
Bewolking: Gedeeltelijk bewolkt 579 m
ENVA 191750Z 12006KT 9999 SCT019 M06/M08 Q1008 RMK WIND 670FT 10006KT
ENBO - Bodø Noorwegen
Gewijzigd: 19-11-2017 18:50
Licht bewolkt  
Licht bewolkt  
   Wind: ONO 29.6 km/h
Wind: ONO 29.6 km/h
Temperatuur: -4°C
Voelt als: -12°C
Dauwpunt: -8°C
Vochtigheid: 74%
Barometer: 1009 hPa
Satelliet beelden: Licht bewolkt
Zicht: meer dan 10 km
Bewolking: Licht bewolkt 1219 m
ENBO 191750Z 07016KT 9999 FEW040 M04/M08 Q1009 NOSIG
ETNG - Geilenkirchen Duitsland
Gewijzigd: 19-11-2017 18:50
Kleine regenbuien, Neerslag, Grotendeels bewolkt  
Kleine regenbuien, Neerslag, Grotendeels bewolkt  
   Wind: Westen 16.7 km/h
Wind: Westen 16.7 km/h
Temperatuur: 6°C
Voelt als: 3°C
Dauwpunt: 4°C
Vochtigheid: 87%
Barometer: 1021 hPa
Satelliet beelden: Grotendeels bewolkt
Zicht: 6 km
Bewolking: Grotendeels bewolkt 610 m
ETNG 191750Z 27009KT 6000 -SHRA BKN020TCU 06/04 Q1021
 

Script ontwikkeld door  Saratoga-weather.org Aangepast voor de template door  Weerstation Leuven

U vindt ons ook hier:

Het Weer Aktueel

UK Metoffice

European Weather Network

WeatherCloud

Weather Underground

Benelux Weer Netwerk

AWEKAS

WeatherlinkIP

Citizen Weather Observer Program (CWOP)

HAMweather, WeatherForYou, PWS Weather

Apparatuur in gebruik:

Hardwareleverancier
Weerhuisje

Weerstation
Vantage Pro2 Plus +UV

Weercomputer
AwekasBox (ALIX.3D2 PC)

Weerprogramma
Smartbedded

Weersatelliet
WRX137 & KX137

Bliksemdetectie
Boltek StormTracker PCI

Webleverancier
STRATO VPS Linux V80

Weerhuisje

Vantage Pro2 Plus +UV

AwekasBox (ALIX.3D2 PC)

Smartbedded

WRX137 & KX137

Boltek StormTracker PCI

STRATO VPS Linux V80